sensor_id;sensor_type;location;lat;lon;timestamp;pressure;altitude;pressure_sealevel;temperature;humidity
57799;BME280;43626;53.866;30.298;2022-12-05T00:04:17;1046.7;;;-5.5;51.8
57799;BME280;43626;53.866;30.298;2022-12-05T00:09:35;1046.7;;;-5.4;51.7
57799;BME280;43626;53.866;30.298;2022-12-05T00:14:59;1046.6;;;-5.5;51.8
57799;BME280;43626;53.866;30.298;2022-12-05T00:20:03;1046.6;;;-5.5;51.8
57799;BME280;43626;53.866;30.298;2022-12-05T00:25:03;1046.5;;;-5.5;51.8
57799;BME280;43626;53.866;30.298;2022-12-05T00:29:17;1046.5;;;-5.7;52
57799;BME280;43626;53.866;30.298;2022-12-05T00:34:49;1046.5;;;-5.7;52
57799;BME280;43626;53.866;30.298;2022-12-05T00:40:03;1046.4;;;-5.8;51.9
57799;BME280;43626;53.866;30.298;2022-12-05T00:44:35;1046.3;;;-5.8;52
57799;BME280;43626;53.866;30.298;2022-12-05T00:50:03;1046.4;;;-5.9;52.1
57799;BME280;43626;53.866;30.298;2022-12-05T00:54:25;1046.3;;;-6;52
57799;BME280;43626;53.866;30.298;2022-12-05T00:59:49;1046.3;;;-6;52.3
57799;BME280;43626;53.866;30.298;2022-12-05T01:04:35;1046.2;;;-6.1;52.5
57799;BME280;43626;53.866;30.298;2022-12-05T01:09:47;1046.2;;;-6.1;52.6
57799;BME280;43626;53.866;30.298;2022-12-05T01:14:35;1046.1;;;-6.1;52.7
57799;BME280;43626;53.866;30.298;2022-12-05T01:19:17;1046;;;-6;52.7
57799;BME280;43626;53.866;30.298;2022-12-05T01:24:21;1046;;;-5.9;52.6
57799;BME280;43626;53.866;30.298;2022-12-05T01:30:05;1046;;;-5.9;52.5
57799;BME280;43626;53.866;30.298;2022-12-05T01:35:05;1046;;;-5.9;52.4
57799;BME280;43626;53.866;30.298;2022-12-05T01:40:05;1045.9;;;-5.9;52.3
57799;BME280;43626;53.866;30.298;2022-12-05T01:45:21;1045.9;;;-5.9;52.3
57799;BME280;43626;53.866;30.298;2022-12-05T01:49:43;1045.9;;;-6;52.1
57799;BME280;43626;53.866;30.298;2022-12-05T01:54:43;1045.9;;;-6;52.2
57799;BME280;43626;53.866;30.298;2022-12-05T01:59:25;1046;;;-6;52.4
57799;BME280;43626;53.866;30.298;2022-12-05T02:05:05;1045.9;;;-5.9;52.3
57799;BME280;43626;53.866;30.298;2022-12-05T02:09:45;1045.8;;;-5.8;52.2
57799;BME280;43626;53.866;30.298;2022-12-05T02:14:55;1045.8;;;-5.8;52.2
57799;BME280;43626;53.866;30.298;2022-12-05T02:19:23;1045.7;;;-5.8;52.2
57799;BME280;43626;53.866;30.298;2022-12-05T02:24:54;1045.7;;;-5.9;52.2
57799;BME280;43626;53.866;30.298;2022-12-05T02:29:46;1045.6;;;-6;52.1
57799;BME280;43626;53.866;30.298;2022-12-05T02:34:18;1045.6;;;-6;52
57799;BME280;43626;53.866;30.298;2022-12-05T02:39:53;1045.6;;;-6;52
57799;BME280;43626;53.866;30.298;2022-12-05T02:44:49;1045.7;;;-6;52
57799;BME280;43626;53.866;30.298;2022-12-05T02:49:39;1045.8;;;-6;51.9
57799;BME280;43626;53.866;30.298;2022-12-05T02:55:07;1045.9;;;-5.9;51.9
57799;BME280;43626;53.866;30.298;2022-12-05T02:59:17;1045.7;;;-5.9;51.9
57799;BME280;43626;53.866;30.298;2022-12-05T03:04:55;1045.5;;;-5.9;51.9
57799;BME280;43626;53.866;30.298;2022-12-05T03:09:53;1045.4;;;-6;52
57799;BME280;43626;53.866;30.298;2022-12-05T03:14:55;1045.5;;;-6;52.1
57799;BME280;43626;53.866;30.298;2022-12-05T03:20:10;1045.4;;;-6;52.1
57799;BME280;43626;53.866;30.298;2022-12-05T03:24:29;1045.4;;;-6;52.1
57799;BME280;43626;53.866;30.298;2022-12-05T03:30:07;1045.4;;;-6;52
57799;BME280;43626;53.866;30.298;2022-12-05T03:34:42;1045.4;;;-6.1;52.1
57799;BME280;43626;53.866;30.298;2022-12-05T03:39:58;1045.4;;;-6.1;52.1
57799;BME280;43626;53.866;30.298;2022-12-05T03:44:43;1045.4;;;-6.2;52.2
57799;BME280;43626;53.866;30.298;2022-12-05T03:49:18;1045.4;;;-6.2;52.1
57799;BME280;43626;53.866;30.298;2022-12-05T03:54:31;1045.4;;;-6.2;52.2
57799;BME280;43626;53.866;30.298;2022-12-05T03:59:56;1045.4;;;-6.1;52.3
57799;BME280;43626;53.866;30.298;2022-12-05T04:04:40;1045.3;;;-6.1;52.3
57799;BME280;43626;53.866;30.298;2022-12-05T04:09:55;1045.3;;;-6.1;52.1
57799;BME280;43626;53.866;30.298;2022-12-05T04:14:18;1045.3;;;-6.1;52.2
57799;BME280;43626;53.866;30.298;2022-12-05T04:19:53;1045.2;;;-6.1;52.2
57799;BME280;43626;53.866;30.298;2022-12-05T04:24:39;1045.2;;;-6;52.2
57799;BME280;43626;53.866;30.298;2022-12-05T04:29:27;1045.1;;;-6.1;51.9
57799;BME280;43626;53.866;30.298;2022-12-05T04:35:06;1045.1;;;-6.1;51.7
57799;BME280;43626;53.866;30.298;2022-12-05T04:39:40;1045.1;;;-6.3;51.9
57799;BME280;43626;53.866;30.298;2022-12-05T04:45:04;1045.1;;;-6.3;52.2
57799;BME280;43626;53.866;30.298;2022-12-05T04:49:51;1045.1;;;-6.2;52.2
57799;BME280;43626;53.866;30.298;2022-12-05T04:54:49;1045.1;;;-6.2;52
57799;BME280;43626;53.866;30.298;2022-12-05T04:59:39;1045;;;-6.1;53.7
57799;BME280;43626;53.866;30.298;2022-12-05T05:04:28;1045;;;-6;52.2
57799;BME280;43626;53.866;30.298;2022-12-05T05:09:37;1045;;;-6.1;52.2
57799;BME280;43626;53.866;30.298;2022-12-05T05:14:41;1045;;;-6.2;52.2
57799;BME280;43626;53.866;30.298;2022-12-05T05:19:37;1045;;;-6.2;52.2
57799;BME280;43626;53.866;30.298;2022-12-05T05:25:05;1045;;;-6.2;52.1
57799;BME280;43626;53.866;30.298;2022-12-05T05:29:27;1045;;;-6.3;52.1
57799;BME280;43626;53.866;30.298;2022-12-05T05:34:55;1044.9;;;-6.5;52
57799;BME280;43626;53.866;30.298;2022-12-05T05:39:53;1044.9;;;-6.5;52.3
57799;BME280;43626;53.866;30.298;2022-12-05T05:44:53;1044.8;;;-6.6;52.3
57799;BME280;43626;53.866;30.298;2022-12-05T05:50:06;1044.8;;;-6.6;52.5
57799;BME280;43626;53.866;30.298;2022-12-05T05:54:29;1044.8;;;-6.6;52.5
57799;BME280;43626;53.866;30.298;2022-12-05T06:00:07;1044.8;;;-6.7;52.7
57799;BME280;43626;53.866;30.298;2022-12-05T06:04:39;1044.8;;;-6.7;52.6
57799;BME280;43626;53.866;30.298;2022-12-05T06:09:53;1044.8;;;-6.7;52.6
57799;BME280;43626;53.866;30.298;2022-12-05T06:14:41;1044.8;;;-6.6;52.7
57799;BME280;43626;53.866;30.298;2022-12-05T06:19:53;1044.9;;;-6.6;52.6
57799;BME280;43626;53.866;30.298;2022-12-05T06:24:41;1045;;;-6.7;52.7
57799;BME280;43626;53.866;30.298;2022-12-05T06:29:51;1045;;;-6.6;52.5
57799;BME280;43626;53.866;30.298;2022-12-05T06:34:27;1045;;;-6.7;52.5
57799;BME280;43626;53.866;30.298;2022-12-05T06:40:07;1045;;;-6.6;52.4
57799;BME280;43626;53.866;30.298;2022-12-05T06:44:17;1045.1;;;-6.5;52.3
57799;BME280;43626;53.866;30.298;2022-12-05T06:49:55;1045;;;-6.5;52.2
57799;BME280;43626;53.866;30.298;2022-12-05T06:54:53;1045;;;-6.5;53
57799;BME280;43626;53.866;30.298;2022-12-05T06:59:53;1044.9;;;-6.4;52.9
57799;BME280;43626;53.866;30.298;2022-12-05T07:05:05;1044.8;;;-6.5;52.5
57799;BME280;43626;53.866;30.298;2022-12-05T07:09:27;1044.9;;;-6.5;52.6
57799;BME280;43626;53.866;30.298;2022-12-05T07:15:03;1044.9;;;-6.5;52.7
57799;BME280;43626;53.866;30.298;2022-12-05T07:20:03;1044.9;;;-6.4;52.4
57799;BME280;43626;53.866;30.298;2022-12-05T07:24:51;1045;;;-6.4;52.3
57799;BME280;43626;53.866;30.298;2022-12-05T07:30:03;1045;;;-6.3;52.4
57799;BME280;43626;53.866;30.298;2022-12-05T07:34:17;1045.1;;;-6.2;52
57799;BME280;43626;53.866;30.298;2022-12-05T07:39:37;1045.1;;;-6.2;52
57799;BME280;43626;53.866;30.298;2022-12-05T07:45:07;1045.1;;;-6.1;51.9
57799;BME280;43626;53.866;30.298;2022-12-05T07:49:27;1045.2;;;-6.1;52.1
57799;BME280;43626;53.866;30.298;2022-12-05T07:55:05;1045.2;;;-6;52
57799;BME280;43626;53.866;30.298;2022-12-05T07:59:27;1045.2;;;-5.9;52
57799;BME280;43626;53.866;30.298;2022-12-05T08:05:05;1045.2;;;-5.9;51.9
57799;BME280;43626;53.866;30.298;2022-12-05T08:09:39;1045.2;;;-5.7;51.9
57799;BME280;43626;53.866;30.298;2022-12-05T08:14:51;1045.2;;;-5.7;51.8
57799;BME280;43626;53.866;30.298;2022-12-05T08:19:53;1045;;;-5.7;51.4
57799;BME280;43626;53.866;30.298;2022-12-05T08:24:27;1044.9;;;-5.7;51.2
57799;BME280;43626;53.866;30.298;2022-12-05T08:30:03;1044.8;;;-5.8;51.3
57799;BME280;43626;53.866;30.298;2022-12-05T08:35:05;1044.8;;;-5.8;51.7
57799;BME280;43626;53.866;30.298;2022-12-05T08:39:51;1044.8;;;-5.6;51.6
57799;BME280;43626;53.866;30.298;2022-12-05T08:44:49;1044.7;;;-5.6;51.6
57799;BME280;43626;53.866;30.298;2022-12-05T08:49:17;1044.6;;;-5.6;51.7
57799;BME280;43626;53.866;30.298;2022-12-05T08:54:27;1044.5;;;-5.5;51.7
57799;BME280;43626;53.866;30.298;2022-12-05T09:00:03;1044.5;;;-5.3;51.6
57799;BME280;43626;53.866;30.298;2022-12-05T09:04:37;1044.5;;;-5.3;51.6
57799;BME280;43626;53.866;30.298;2022-12-05T09:10:06;1044.4;;;-5.2;51.4
57799;BME280;43626;53.866;30.298;2022-12-05T09:14:39;1044.3;;;-5.1;50.9
57799;BME280;43626;53.866;30.298;2022-12-05T09:20:03;1044.3;;;-5.1;50.7
57799;BME280;43626;53.866;30.298;2022-12-05T09:24:39;1044.1;;;-5;50.8
57799;BME280;43626;53.866;30.298;2022-12-05T09:29:51;1044.1;;;-4.8;50.5
57799;BME280;43626;53.866;30.298;2022-12-05T09:34:53;1044;;;-4.7;50.4
57799;BME280;43626;53.866;30.298;2022-12-05T09:39:27;1044;;;-4.7;50.5
57799;BME280;43626;53.866;30.298;2022-12-05T09:45:04;1044;;;-4.6;50.6
57799;BME280;43626;53.866;30.298;2022-12-05T09:50:07;1043.9;;;-4.4;50.4
57799;BME280;43626;53.866;30.298;2022-12-05T09:54:51;1043.9;;;-4.3;50.3
57799;BME280;43626;53.866;30.298;2022-12-05T09:59:39;1043.8;;;-4.3;50.3
57799;BME280;43626;53.866;30.298;2022-12-05T10:04:45;1043.8;;;-4.4;50.3
57799;BME280;43626;53.866;30.298;2022-12-05T10:09:44;1043.7;;;-4.3;50
57799;BME280;43626;53.866;30.298;2022-12-05T10:15:04;1043.6;;;-4.3;49.8
57799;BME280;43626;53.866;30.298;2022-12-05T10:19:51;1043.6;;;-4.2;49.6
57799;BME280;43626;53.866;30.298;2022-12-05T10:25:03;1043.5;;;-4.1;49.5
57799;BME280;43626;53.866;30.298;2022-12-05T10:29:28;1043.5;;;-4;49.7
57799;BME280;43626;53.866;30.298;2022-12-05T10:35:13;1043.5;;;-4;49.7
57799;BME280;43626;53.866;30.298;2022-12-05T10:39:39;1043.4;;;-3.9;49.8
57799;BME280;43626;53.866;30.298;2022-12-05T10:44:54;1043.4;;;-3.8;49.9
57799;BME280;43626;53.866;30.298;2022-12-05T10:49:53;1043.3;;;-3.8;49.9
57799;BME280;43626;53.866;30.298;2022-12-05T10:54:42;1043.3;;;-3.8;49.9
57799;BME280;43626;53.866;30.298;2022-12-05T11:00:08;1043.3;;;-4;49.9
57799;BME280;43626;53.866;30.298;2022-12-05T11:05:03;1043.3;;;-4.2;50.1
57799;BME280;43626;53.866;30.298;2022-12-05T11:09:29;1043.1;;;-4.2;50.4
57799;BME280;43626;53.866;30.298;2022-12-05T11:14:52;1043.1;;;-4.2;50.3
57799;BME280;43626;53.866;30.298;2022-12-05T11:19:18;1043;;;-4.1;50.4
57799;BME280;43626;53.866;30.298;2022-12-05T11:24:39;1042.9;;;-3.9;50.1
57799;BME280;43626;53.866;30.298;2022-12-05T11:30:14;1042.9;;;-3.8;50.3
57799;BME280;43626;53.866;30.298;2022-12-05T11:34:40;1042.8;;;-3.9;50.2
57799;BME280;43626;53.866;30.298;2022-12-05T11:40:10;1042.8;;;-3.9;50.5
57799;BME280;43626;53.866;30.298;2022-12-05T11:44:21;1042.6;;;-4.1;50.6
57799;BME280;43626;53.866;30.298;2022-12-05T11:49:56;1042.6;;;-4.3;50.8
57799;BME280;43626;53.866;30.298;2022-12-05T11:54:45;1042.5;;;-4.5;51.2
57799;BME280;43626;53.866;30.298;2022-12-05T12:00:11;1042.4;;;-4.5;51.6
57799;BME280;43626;53.866;30.298;2022-12-05T12:04:56;1042.3;;;-4.6;51.7
57799;BME280;43626;53.866;30.298;2022-12-05T12:09:45;1042.3;;;-4.7;52.1
57799;BME280;43626;53.866;30.298;2022-12-05T12:14:31;1042.2;;;-4.7;52.3
57799;BME280;43626;53.866;30.298;2022-12-05T12:20:10;1042.2;;;-4.8;52.4
57799;BME280;43626;53.866;30.298;2022-12-05T12:25:11;1042.1;;;-4.7;52.3
57799;BME280;43626;53.866;30.298;2022-12-05T12:29:44;1042;;;-4.9;52.4
57799;BME280;43626;53.866;30.298;2022-12-05T12:34:24;1042;;;-5;52.6
57799;BME280;43626;53.866;30.298;2022-12-05T12:39:43;1042;;;-5;52.8
57799;BME280;43626;53.866;30.298;2022-12-05T12:45:13;1041.9;;;-5.1;52.8
57799;BME280;43626;53.866;30.298;2022-12-05T12:49:43;1041.8;;;-5.2;53
57799;BME280;43626;53.866;30.298;2022-12-05T12:55:00;1041.8;;;-5.2;53.2
57799;BME280;43626;53.866;30.298;2022-12-05T12:59:35;1041.8;;;-5.1;53.2
57799;BME280;43626;53.866;30.298;2022-12-05T13:04:40;1041.7;;;-5.2;53.1
57799;BME280;43626;53.866;30.298;2022-12-05T13:09:40;1041.7;;;-5.2;53.4
57799;BME280;43626;53.866;30.298;2022-12-05T13:14:52;1041.7;;;-5.1;53.1
57799;BME280;43626;53.866;30.298;2022-12-05T13:19:55;1041.6;;;-5.1;53
57799;BME280;43626;53.866;30.298;2022-12-05T13:24:18;1041.6;;;-5.2;53
57799;BME280;43626;53.866;30.298;2022-12-05T13:29:18;1041.5;;;-5.2;53
57799;BME280;43626;53.866;30.298;2022-12-05T13:35:07;1041.5;;;-5.3;52.9
57799;BME280;43626;53.866;30.298;2022-12-05T13:40:05;1041.5;;;-5.3;53
57799;BME280;43626;53.866;30.298;2022-12-05T13:44:42;1041.4;;;-5.4;53.1
57799;BME280;43626;53.866;30.298;2022-12-05T13:49:18;1041.4;;;-5.3;53
57799;BME280;43626;53.866;30.298;2022-12-05T13:54:29;1041.4;;;-5.4;53
57799;BME280;43626;53.866;30.298;2022-12-05T14:00:19;1041.3;;;-5.5;53
57799;BME280;43626;53.866;30.298;2022-12-05T14:04:44;1041.3;;;-5.5;53
57799;BME280;43626;53.866;30.298;2022-12-05T14:09:55;1041.3;;;-5.5;52.9
57799;BME280;43626;53.866;30.298;2022-12-05T14:14:24;1041.3;;;-5.5;53
57799;BME280;43626;53.866;30.298;2022-12-05T14:19:46;1041.2;;;-5.6;53.2
57799;BME280;43626;53.866;30.298;2022-12-05T14:24:41;1041.2;;;-5.6;53.3
57799;BME280;43626;53.866;30.298;2022-12-05T14:29:57;1041.2;;;-5.7;53.4
57799;BME280;43626;53.866;30.298;2022-12-05T14:34:56;1041.1;;;-5.8;53.6
57799;BME280;43626;53.866;30.298;2022-12-05T14:39:30;1041.1;;;-5.8;53.6
57799;BME280;43626;53.866;30.298;2022-12-05T14:44:54;1041.1;;;-5.8;53.6
57799;BME280;43626;53.866;30.298;2022-12-05T14:50:42;1041.1;;;-6.1;54
57799;BME280;43626;53.866;30.298;2022-12-05T14:55:10;1041;;;-6.2;54.2
57799;BME280;43626;53.866;30.298;2022-12-05T14:59:56;1041;;;-6.2;54.2
57799;BME280;43626;53.866;30.298;2022-12-05T15:04:17;1040.8;;;-6.2;54.4
57799;BME280;43626;53.866;30.298;2022-12-05T15:09:26;1040.7;;;-6.2;54.1
57799;BME280;43626;53.866;30.298;2022-12-05T15:15:11;1040.7;;;-6.2;54.1
57799;BME280;43626;53.866;30.298;2022-12-05T15:19:31;1040.7;;;-6.2;54.1
57799;BME280;43626;53.866;30.298;2022-12-05T15:24:53;1040.7;;;-6.4;54.3
57799;BME280;43626;53.866;30.298;2022-12-05T15:29:39;1040.7;;;-6.4;54.3
57799;BME280;43626;53.866;30.298;2022-12-05T15:34:30;1040.6;;;-6.4;54.3
57799;BME280;43626;53.866;30.298;2022-12-05T15:39:55;1040.5;;;-6.5;54.4
57799;BME280;43626;53.866;30.298;2022-12-05T15:44:59;1040.4;;;-6.6;54.6
57799;BME280;43626;53.866;30.298;2022-12-05T15:49:55;1040.4;;;-6.7;54.8
57799;BME280;43626;53.866;30.298;2022-12-05T15:54:41;1040.3;;;-6.5;57.1
57799;BME280;43626;53.866;30.298;2022-12-05T15:59:31;1040.3;;;-6.4;54.8
57799;BME280;43626;53.866;30.298;2022-12-05T16:05:16;1040.3;;;-6.5;54.6
57799;BME280;43626;53.866;30.298;2022-12-05T16:09:41;1040.2;;;-6.4;54.4
57799;BME280;43626;53.866;30.298;2022-12-05T16:15:07;1040.2;;;-6.5;54.6
57799;BME280;43626;53.866;30.298;2022-12-05T16:19:27;1040.1;;;-6.5;54.5
57799;BME280;43626;53.866;30.298;2022-12-05T16:24:18;1040;;;-6.5;54.5
57799;BME280;43626;53.866;30.298;2022-12-05T16:29:41;1040;;;-6.5;54.5
57799;BME280;43626;53.866;30.298;2022-12-05T16:35:21;1040;;;-6.5;54.5
57799;BME280;43626;53.866;30.298;2022-12-05T16:40:18;1040;;;-6.6;54.5
57799;BME280;43626;53.866;30.298;2022-12-05T16:45:07;1039.9;;;-6.7;54.7
57799;BME280;43626;53.866;30.298;2022-12-05T16:49:31;1039.9;;;-6.7;54.6
57799;BME280;43626;53.866;30.298;2022-12-05T16:54:51;1039.9;;;-6.7;54.6
57799;BME280;43626;53.866;30.298;2022-12-05T16:59:53;1039.8;;;-6.7;54.5
57799;BME280;43626;53.866;30.298;2022-12-05T17:04:39;1039.8;;;-6.7;54.4
57799;BME280;43626;53.866;30.298;2022-12-05T17:10:07;1039.7;;;-6.7;54.6
57799;BME280;43626;53.866;30.298;2022-12-05T17:14:39;1039.7;;;-6.8;54.5
57799;BME280;43626;53.866;30.298;2022-12-05T17:19:43;1039.7;;;-6.7;54.6
57799;BME280;43626;53.866;30.298;2022-12-05T17:24:17;1039.7;;;-6.7;54.5
57799;BME280;43626;53.866;30.298;2022-12-05T17:30:07;1039.6;;;-6.6;54.5
57799;BME280;43626;53.866;30.298;2022-12-05T17:34:39;1039.6;;;-6.6;54.3
57799;BME280;43626;53.866;30.298;2022-12-05T17:39:27;1039.5;;;-6.6;54.2
57799;BME280;43626;53.866;30.298;2022-12-05T17:44:53;1039.6;;;-6.7;54.2
57799;BME280;43626;53.866;30.298;2022-12-05T17:50:06;1039.6;;;-6.7;54.2
57799;BME280;43626;53.866;30.298;2022-12-05T17:55:11;1039.6;;;-6.8;54.3
57799;BME280;43626;53.866;30.298;2022-12-05T18:00:07;1039.5;;;-6.8;54.4
57799;BME280;43626;53.866;30.298;2022-12-05T18:04:27;1039.5;;;-6.8;54.4
57799;BME280;43626;53.866;30.298;2022-12-05T18:09:53;1039.4;;;-6.8;54.4
57799;BME280;43626;53.866;30.298;2022-12-05T18:14:55;1039.4;;;-6.8;54.5
57799;BME280;43626;53.866;30.298;2022-12-05T18:19:17;1039.4;;;-6.8;54.5
57799;BME280;43626;53.866;30.298;2022-12-05T18:25:07;1039.5;;;-6.8;54.6
57799;BME280;43626;53.866;30.298;2022-12-05T18:29:29;1039.4;;;-6.7;54.6
57799;BME280;43626;53.866;30.298;2022-12-05T18:34:55;1039.4;;;-6.7;54.4
57799;BME280;43626;53.866;30.298;2022-12-05T18:39:17;1039.4;;;-6.7;54.6
57799;BME280;43626;53.866;30.298;2022-12-05T18:45:07;1039.4;;;-6.7;54.5
57799;BME280;43626;53.866;30.298;2022-12-05T18:49:39;1039.4;;;-6.7;54.4
57799;BME280;43626;53.866;30.298;2022-12-05T18:54:17;1039.4;;;-6.6;54.4
57799;BME280;43626;53.866;30.298;2022-12-05T18:59:41;1039.4;;;-6.7;54.5
57799;BME280;43626;53.866;30.298;2022-12-05T19:05:05;1039.4;;;-6.7;55.7
57799;BME280;43626;53.866;30.298;2022-12-05T19:10:07;1039.5;;;-6.7;54.9
57799;BME280;43626;53.866;30.298;2022-12-05T19:15:05;1039.4;;;-6.7;54.7
57799;BME280;43626;53.866;30.298;2022-12-05T19:19:17;1039.4;;;-6.8;54.7
57799;BME280;43626;53.866;30.298;2022-12-05T19:24:53;1039.3;;;-6.9;54.8
57799;BME280;43626;53.866;30.298;2022-12-05T19:29:55;1039.3;;;-6.9;54.9
57799;BME280;43626;53.866;30.298;2022-12-05T19:34:29;1039.2;;;-6.9;54.9
57799;BME280;43626;53.866;30.298;2022-12-05T19:40:07;1039.2;;;-6.8;54.7
57799;BME280;43626;53.866;30.298;2022-12-05T19:44:17;1039.2;;;-6.7;54.5
57799;BME280;43626;53.866;30.298;2022-12-05T19:49:53;1039.3;;;-6.6;54.4
57799;BME280;43626;53.866;30.298;2022-12-05T19:54:41;1039.2;;;-6.6;54.1
57799;BME280;43626;53.866;30.298;2022-12-05T20:00:07;1039.1;;;-6.6;54.2
57799;BME280;43626;53.866;30.298;2022-12-05T20:04:39;1039.1;;;-6.6;54.3
57799;BME280;43626;53.866;30.298;2022-12-05T20:09:29;1039;;;-6.7;54.3
57799;BME280;43626;53.866;30.298;2022-12-05T20:14:17;1039.1;;;-6.7;54.4
57799;BME280;43626;53.866;30.298;2022-12-05T20:19:51;1039;;;-6.7;54.2
57799;BME280;43626;53.866;30.298;2022-12-05T20:25:07;1039;;;-6.8;54.3
57799;BME280;43626;53.866;30.298;2022-12-05T20:30:07;1038.9;;;-6.7;54
57799;BME280;43626;53.866;30.298;2022-12-05T20:34:29;1038.9;;;-6.8;53.8
57799;BME280;43626;53.866;30.298;2022-12-05T20:39:53;1038.8;;;-6.8;53.9
57799;BME280;43626;53.866;30.298;2022-12-05T20:45:03;1038.8;;;-6.8;54.1
57799;BME280;43626;53.866;30.298;2022-12-05T20:49:39;1038.8;;;-6.8;53.9
57799;BME280;43626;53.866;30.298;2022-12-05T20:55:07;1038.8;;;-6.8;53.9
57799;BME280;43626;53.866;30.298;2022-12-05T20:59:37;1038.8;;;-6.8;54
57799;BME280;43626;53.866;30.298;2022-12-05T21:05:07;1038.8;;;-6.8;54.1
57799;BME280;43626;53.866;30.298;2022-12-05T21:09:41;1038.7;;;-6.8;53.9
57799;BME280;43626;53.866;30.298;2022-12-05T21:14:53;1038.7;;;-6.8;53.9
57799;BME280;43626;53.866;30.298;2022-12-05T21:19:17;1038.7;;;-6.8;53.8
57799;BME280;43626;53.866;30.298;2022-12-05T21:24:29;1038.7;;;-6.8;53.6
57799;BME280;43626;53.866;30.298;2022-12-05T21:29:41;1038.7;;;-6.8;53.6
57799;BME280;43626;53.866;30.298;2022-12-05T21:35:07;1038.6;;;-6.8;53.4
57799;BME280;43626;53.866;30.298;2022-12-05T21:39:41;1038.6;;;-6.9;53.6
57799;BME280;43626;53.866;30.298;2022-12-05T21:45:03;1038.5;;;-6.9;53.6
57799;BME280;43626;53.866;30.298;2022-12-05T21:49:17;1038.5;;;-6.9;53.6
57799;BME280;43626;53.866;30.298;2022-12-05T21:54:49;1038.4;;;-6.9;53.6
57799;BME280;43626;53.866;30.298;2022-12-05T21:59:51;1038.3;;;-6.9;53.6
57799;BME280;43626;53.866;30.298;2022-12-05T22:04:27;1038.3;;;-6.9;53.8
57799;BME280;43626;53.866;30.298;2022-12-05T22:10:01;1038.3;;;-6.9;53.7
57799;BME280;43626;53.866;30.298;2022-12-05T22:14:17;1038.2;;;-6.9;53.5
57799;BME280;43626;53.866;30.298;2022-12-05T22:20:04;1038.1;;;-6.8;53.3
57799;BME280;43626;53.866;30.298;2022-12-05T22:24:27;1038.1;;;-6.8;53.2
57799;BME280;43626;53.866;30.298;2022-12-05T22:29:51;1038;;;-6.9;53.3
57799;BME280;43626;53.866;30.298;2022-12-05T22:34:33;1037.9;;;-6.9;53.3
57799;BME280;43626;53.866;30.298;2022-12-05T22:39:17;1037.8;;;-6.8;53.4
57799;BME280;43626;53.866;30.298;2022-12-05T22:44:37;1037.7;;;-6.9;53.4
57799;BME280;43626;53.866;30.298;2022-12-05T22:49:49;1037.6;;;-6.9;53.4
57799;BME280;43626;53.866;30.298;2022-12-05T22:54:37;1037.5;;;-6.9;53.6
57799;BME280;43626;53.866;30.298;2022-12-05T23:00:04;1037.5;;;-7;53.8
57799;BME280;43626;53.866;30.298;2022-12-05T23:04:27;1037.4;;;-6.9;53.9
57799;BME280;43626;53.866;30.298;2022-12-05T23:09:47;1037.4;;;-6.9;53.9
57799;BME280;43626;53.866;30.298;2022-12-05T23:14:47;1037.3;;;-7;54.1
57799;BME280;43626;53.866;30.298;2022-12-05T23:19:49;1037.2;;;-7;54.4
57799;BME280;43626;53.866;30.298;2022-12-05T23:25:03;1037.2;;;-7.1;54.6
57799;BME280;43626;53.866;30.298;2022-12-05T23:29:35;1037.1;;;-7.2;54.7
57799;BME280;43626;53.866;30.298;2022-12-05T23:35:03;1037.1;;;-7.2;54.8
57799;BME280;43626;53.866;30.298;2022-12-05T23:39:37;1037;;;-7.2;54.9
57799;BME280;43626;53.866;30.298;2022-12-05T23:44:47;1037;;;-7.2;55
57799;BME280;43626;53.866;30.298;2022-12-05T23:49:35;1036.9;;;-7.2;54.9
57799;BME280;43626;53.866;30.298;2022-12-05T23:55:03;1036.8;;;-7.2;54.9
57799;BME280;43626;53.866;30.298;2022-12-05T23:59:17;1036.8;;;-7.2;55.3
